createdAt,value
2023-04-12T00:03:28.508Z,8.30
2023-04-12T00:13:31.325Z,7.63
2023-04-12T00:23:34.300Z,5.50
2023-04-12T00:33:36.453Z,6.15
2023-04-12T00:43:40.857Z,5.28
2023-04-12T00:53:42.992Z,4.50
2023-04-12T01:03:45.189Z,4.53
2023-04-12T01:14:19.884Z,5.72
2023-04-12T01:24:46.266Z,5.50
2023-04-12T01:34:48.525Z,7.57
2023-04-12T01:44:51.622Z,9.23
2023-04-12T01:54:57.421Z,11.02
2023-04-12T02:05:01.193Z,10.43
2023-04-12T02:15:03.985Z,12.43
2023-04-12T02:25:09.100Z,11.98
2023-04-12T02:35:18.468Z,11.05
2023-04-12T02:45:20.418Z,11.18
2023-04-12T02:55:25.941Z,10.82
2023-04-12T03:05:27.876Z,10.52
2023-04-12T03:15:29.844Z,9.07
2023-04-12T03:25:32.885Z,10.82
2023-04-12T03:35:34.834Z,11.85
2023-04-12T03:45:37.806Z,10.60
2023-04-12T03:55:39.799Z,10.27
2023-04-12T04:05:42.096Z,10.43
2023-04-12T04:15:44.070Z,10.95
2023-04-12T04:25:47.345Z,9.18
2023-04-12T04:35:49.394Z,8.70
2023-04-12T04:45:54.822Z,10.35
2023-04-12T04:56:01.643Z,9.32
2023-04-12T05:06:03.681Z,8.95
2023-04-12T05:16:09.358Z,9.73
2023-04-12T05:26:11.557Z,9.15
2023-04-12T05:36:15.878Z,9.93
2023-04-12T05:46:23.782Z,9.80
2023-04-12T05:56:25.923Z,11.13
2023-04-12T06:06:30.593Z,10.43
2023-04-12T06:16:32.672Z,12.15
2023-04-12T06:26:40.255Z,11.80
2023-04-12T06:36:43.802Z,11.57
2023-04-12T06:46:45.858Z,10.55
2023-04-12T06:56:48.148Z,11.50
2023-04-12T07:06:50.131Z,12.32
2023-04-12T07:16:52.045Z,13.35
2023-04-12T07:26:55.284Z,12.35
2023-04-12T07:36:57.335Z,12.30
2023-04-12T07:46:59.261Z,10.52
2023-04-12T07:57:05.715Z,11.70
2023-04-12T08:07:07.762Z,12.60
2023-04-12T08:17:09.786Z,12.30
2023-04-12T08:27:14.155Z,11.98
2023-04-12T08:37:17.226Z,13.40
2023-04-12T08:47:19.992Z,13.20
2023-04-12T08:57:22.310Z,12.75
2023-04-12T09:07:28.053Z,11.38
2023-04-12T09:17:30.202Z,11.32
2023-04-12T09:27:47.159Z,11.60
2023-04-12T09:37:58.404Z,12.15
2023-04-12T09:48:00.645Z,12.05
2023-04-12T09:58:05.163Z,11.82
2023-04-12T10:08:08.424Z,13.10
2023-04-12T10:18:14.581Z,12.05
2023-04-12T10:28:21.964Z,9.98
2023-04-12T10:38:27.028Z,10.45
2023-04-12T10:48:51.089Z,4.05
2023-04-12T10:58:53.072Z,10.30
2023-04-12T11:08:56.726Z,10.15
2023-04-12T11:19:01.064Z,11.35
2023-04-12T11:29:08.157Z,10.98
2023-04-12T11:39:10.678Z,10.43
2023-04-12T11:49:17.850Z,10.68
2023-04-12T11:59:19.907Z,10.05
2023-04-12T12:09:24.204Z,8.18
2023-04-12T12:19:56.205Z,11.20
2023-04-12T12:30:01.875Z,10.52
2023-04-12T12:40:11.223Z,11.45
2023-04-12T12:50:14.524Z,5.65
2023-04-12T13:00:17.309Z,10.75
2023-04-12T13:10:20.643Z,12.77
2023-04-12T13:20:23.293Z,13.02
2023-04-12T13:30:25.684Z,12.25
2023-04-12T13:40:27.742Z,12.80
2023-04-12T13:50:29.694Z,11.40
2023-04-12T14:00:31.751Z,10.68
2023-04-12T14:10:33.818Z,10.75
2023-04-12T14:20:35.796Z,11.50
2023-04-12T14:30:37.899Z,9.93
2023-04-12T14:40:39.992Z,10.52
2023-04-12T14:50:42.007Z,11.48
2023-04-12T15:00:45.388Z,12.52
2023-04-12T15:10:48.020Z,12.38
2023-04-12T15:20:50.035Z,12.48
2023-04-12T15:30:52.049Z,12.30
2023-04-12T15:40:56.302Z,12.75
2023-04-12T15:50:58.493Z,13.55
2023-04-12T16:01:02.729Z,12.20
2023-04-12T16:11:04.999Z,11.35
2023-04-12T16:21:07.128Z,10.52
2023-04-12T16:31:10.926Z,10.63
2023-04-12T16:41:13.203Z,10.55
2023-04-12T16:51:16.666Z,10.95
2023-04-12T17:01:22.588Z,9.95
2023-04-12T17:11:24.689Z,8.68
2023-04-12T17:21:27.667Z,8.55
2023-04-12T17:31:37.696Z,10.23
2023-04-12T17:41:41.444Z,9.68
2023-04-12T17:51:44.006Z,9.35
2023-04-12T18:01:48.759Z,8.30
2023-04-12T18:11:52.195Z,9.80
2023-04-12T18:21:54.686Z,9.38
2023-04-12T18:31:57.940Z,11.02
2023-04-12T18:42:03.960Z,12.63
2023-04-12T18:52:06.304Z,12.77
2023-04-12T19:02:09.738Z,17.15
2023-04-12T19:12:18.596Z,13.43
2023-04-12T19:22:30.409Z,15.15
2023-04-12T19:32:34.546Z,17.50
2023-04-12T19:42:37.548Z,17.63
2023-04-12T19:53:18.979Z,20.25
2023-04-12T20:03:22.563Z,17.08
2023-04-12T20:13:25.713Z,16.48
2023-04-12T20:23:30.096Z,18.08
2023-04-12T20:33:33.943Z,15.95
2023-04-12T20:43:48.387Z,15.95
2023-04-12T20:53:51.862Z,16.90
2023-04-12T21:03:54.562Z,16.25
2023-04-12T21:13:56.636Z,17.80
2023-04-12T21:23:58.557Z,19.73
2023-04-12T21:34:00.497Z,23.05
2023-04-12T21:44:02.364Z,27.45
2023-04-12T21:54:04.462Z,26.50
2023-04-12T22:04:06.965Z,27.65
2023-04-12T22:14:11.455Z,24.27
2023-04-12T22:24:13.623Z,24.30
2023-04-12T22:34:15.573Z,26.52
2023-04-12T22:44:18.605Z,26.02
2023-04-12T22:54:32.454Z,25.30
2023-04-12T23:04:34.407Z,26.30
2023-04-12T23:14:37.825Z,25.15
2023-04-12T23:24:39.724Z,26.85
2023-04-12T23:34:41.663Z,25.40
2023-04-12T23:44:43.539Z,27.45
2023-04-12T23:54:52.864Z,27.23
